sensor_id;sensor_type;location;lat;lon;timestamp;pressure;altitude;pressure_sealevel;temperature;humidity
69171;BME280;56279;47.902;12.308;2022-08-01T00:01:24;95368.13;;;20.23;67.79
69171;BME280;56279;47.902;12.308;2022-08-01T00:03:25;95370.13;;;20.26;67.72
69171;BME280;56279;47.902;12.308;2022-08-01T00:05:27;95355.63;;;20.27;68.32
69171;BME280;56279;47.902;12.308;2022-08-01T00:07:28;95362.53;;;20.28;67.44
69171;BME280;56279;47.902;12.308;2022-08-01T00:09:29;95364.88;;;20.30;67.85
69171;BME280;56279;47.902;12.308;2022-08-01T00:11:31;95360.63;;;20.29;68.39
69171;BME280;56279;47.902;12.308;2022-08-01T00:13:32;95358.63;;;20.26;68.31
69171;BME280;56279;47.902;12.308;2022-08-01T00:15:33;95356.91;;;20.21;68.66
69171;BME280;56279;47.902;12.308;2022-08-01T00:17:35;95363.41;;;20.20;69.10
69171;BME280;56279;47.902;12.308;2022-08-01T00:19:36;95362.28;;;20.21;68.60
69171;BME280;56279;47.902;12.308;2022-08-01T00:21:38;95365.44;;;20.23;68.94
69171;BME280;56279;47.902;12.308;2022-08-01T00:23:39;95360.84;;;20.24;68.88
69171;BME280;56279;47.902;12.308;2022-08-01T00:25:41;95361.63;;;20.24;69.40
69171;BME280;56279;47.902;12.308;2022-08-01T00:27:45;95360.09;;;20.23;69.43
69171;BME280;56279;47.902;12.308;2022-08-01T00:29:46;95359.75;;;20.25;70.20
69171;BME280;56279;47.902;12.308;2022-08-01T00:31:47;95356.72;;;20.26;70.07
69171;BME280;56279;47.902;12.308;2022-08-01T00:33:49;95360.97;;;20.27;70.00
69171;BME280;56279;47.902;12.308;2022-08-01T00:35:50;95363.66;;;20.27;69.83
69171;BME280;56279;47.902;12.308;2022-08-01T00:37:52;95362.22;;;20.30;70.20
69171;BME280;56279;47.902;12.308;2022-08-01T00:39:53;95361.06;;;20.31;71.02
69171;BME280;56279;47.902;12.308;2022-08-01T00:41:55;95363.00;;;20.30;70.80
69171;BME280;56279;47.902;12.308;2022-08-01T00:43:56;95362.22;;;20.30;70.67
69171;BME280;56279;47.902;12.308;2022-08-01T00:45:57;95370.25;;;20.30;70.70
69171;BME280;56279;47.902;12.308;2022-08-01T00:47:59;95366.13;;;20.32;70.53
69171;BME280;56279;47.902;12.308;2022-08-01T00:50:00;95359.63;;;20.33;70.20
69171;BME280;56279;47.902;12.308;2022-08-01T00:52:05;95362.75;;;20.35;69.74
69171;BME280;56279;47.902;12.308;2022-08-01T00:54:07;95357.84;;;20.37;69.32
69171;BME280;56279;47.902;12.308;2022-08-01T00:56:09;95360.19;;;20.39;68.93
69171;BME280;56279;47.902;12.308;2022-08-01T00:58:10;95363.66;;;20.39;69.87
69171;BME280;56279;47.902;12.308;2022-08-01T01:00:12;95363.22;;;20.37;69.82
69171;BME280;56279;47.902;12.308;2022-08-01T01:02:14;95359.38;;;20.38;70.35
69171;BME280;56279;47.902;12.308;2022-08-01T01:04:16;95366.66;;;20.38;70.45
69171;BME280;56279;47.902;12.308;2022-08-01T01:11:25;95364.66;;;20.35;70.30
69171;BME280;56279;47.902;12.308;2022-08-01T01:13:43;95366.66;;;20.38;70.12
69171;BME280;56279;47.902;12.308;2022-08-01T01:15:56;95367.44;;;20.38;70.29
69171;BME280;56279;47.902;12.308;2022-08-01T01:18:04;95376.72;;;20.41;70.00
69171;BME280;56279;47.902;12.308;2022-08-01T01:20:12;95362.94;;;20.42;69.80
69171;BME280;56279;47.902;12.308;2022-08-01T01:26:45;95360.63;;;20.41;70.52
69171;BME280;56279;47.902;12.308;2022-08-01T01:31:02;95371.56;;;20.36;69.95
69171;BME280;56279;47.902;12.308;2022-08-01T01:33:06;95368.88;;;20.36;69.51
69171;BME280;56279;47.902;12.308;2022-08-01T01:35:16;95377.28;;;20.34;69.41
69171;BME280;56279;47.902;12.308;2022-08-01T01:37:22;95369.91;;;20.31;69.40
69171;BME280;56279;47.902;12.308;2022-08-01T01:39:25;95372.56;;;20.31;69.13
69171;BME280;56279;47.902;12.308;2022-08-01T01:41:30;95372.13;;;20.29;69.71
69171;BME280;56279;47.902;12.308;2022-08-01T01:43:32;95376.63;;;20.25;69.66
69171;BME280;56279;47.902;12.308;2022-08-01T01:45:34;95373.81;;;20.22;69.25
69171;BME280;56279;47.902;12.308;2022-08-01T01:47:38;95379.50;;;20.20;69.21
69171;BME280;56279;47.902;12.308;2022-08-01T01:49:40;95380.16;;;20.17;70.04
69171;BME280;56279;47.902;12.308;2022-08-01T01:51:46;95379.25;;;20.13;70.01
69171;BME280;56279;47.902;12.308;2022-08-01T01:53:49;95377.69;;;20.12;69.79
69171;BME280;56279;47.902;12.308;2022-08-01T01:55:53;95371.88;;;20.10;69.80
69171;BME280;56279;47.902;12.308;2022-08-01T01:57:57;95378.38;;;20.09;69.98
69171;BME280;56279;47.902;12.308;2022-08-01T02:00:00;95382.16;;;20.08;70.36
69171;BME280;56279;47.902;12.308;2022-08-01T02:02:04;95383.25;;;20.07;70.45
69171;BME280;56279;47.902;12.308;2022-08-01T02:04:06;95380.59;;;20.07;70.47
69171;BME280;56279;47.902;12.308;2022-08-01T02:06:08;95382.06;;;20.05;70.73
69171;BME280;56279;47.902;12.308;2022-08-01T02:08:10;95380.16;;;20.05;70.89
69171;BME280;56279;47.902;12.308;2022-08-01T02:10:15;95383.63;;;20.06;70.13
69171;BME280;56279;47.902;12.308;2022-08-01T02:12:17;95383.25;;;20.07;70.25
69171;BME280;56279;47.902;12.308;2022-08-01T02:14:20;95385.94;;;20.07;70.16
69171;BME280;56279;47.902;12.308;2022-08-01T02:16:26;95388.63;;;20.07;70.21
69171;BME280;56279;47.902;12.308;2022-08-01T02:18:29;95397.13;;;20.09;69.82
69171;BME280;56279;47.902;12.308;2022-08-01T02:20:34;95392.53;;;20.10;69.89
69171;BME280;56279;47.902;12.308;2022-08-01T02:22:41;95397.59;;;20.11;69.63
69171;BME280;56279;47.902;12.308;2022-08-01T02:26:52;95399.03;;;20.09;70.37
69171;BME280;56279;47.902;12.308;2022-08-01T02:29:02;95403.94;;;20.07;69.93
69171;BME280;56279;47.902;12.308;2022-08-01T02:31:08;95405.41;;;20.04;70.63
69171;BME280;56279;47.902;12.308;2022-08-01T02:33:17;95404.16;;;20.02;70.09
69171;BME280;56279;47.902;12.308;2022-08-01T02:35:32;95407.63;;;20.02;70.08
69171;BME280;56279;47.902;12.308;2022-08-01T02:37:36;95406.19;;;20.05;70.29
69171;BME280;56279;47.902;12.308;2022-08-01T02:39:39;95412.75;;;20.07;69.82
69171;BME280;56279;47.902;12.308;2022-08-01T02:41:47;95407.84;;;20.09;69.40
69171;BME280;56279;47.902;12.308;2022-08-01T02:43:52;95405.63;;;20.11;69.53
69171;BME280;56279;47.902;12.308;2022-08-01T02:45:57;95405.19;;;20.09;69.57
69171;BME280;56279;47.902;12.308;2022-08-01T02:48:06;95402.03;;;20.07;69.15
69171;BME280;56279;47.902;12.308;2022-08-01T02:50:10;95400.81;;;20.05;69.32
69171;BME280;56279;47.902;12.308;2022-08-01T02:52:15;95408.88;;;20.05;68.94
69171;BME280;56279;47.902;12.308;2022-08-01T02:54:18;95408.06;;;20.04;69.04
69171;BME280;56279;47.902;12.308;2022-08-01T02:56:22;95408.38;;;20.02;69.09
69171;BME280;56279;47.902;12.308;2022-08-01T02:58:25;95413.31;;;20.00;69.02
69171;BME280;56279;47.902;12.308;2022-08-01T03:00:28;95418.66;;;20.00;69.04
69171;BME280;56279;47.902;12.308;2022-08-01T03:02:32;95415.19;;;20.00;69.43
69171;BME280;56279;47.902;12.308;2022-08-01T03:04:37;95409.38;;;19.98;69.17
69171;BME280;56279;47.902;12.308;2022-08-01T03:06:39;95408.94;;;19.96;69.65
69171;BME280;56279;47.902;12.308;2022-08-01T03:08:42;95422.69;;;19.94;69.49
69171;BME280;56279;47.902;12.308;2022-08-01T03:10:46;95420.66;;;19.91;69.58
69171;BME280;56279;47.902;12.308;2022-08-01T03:12:49;95417.88;;;19.88;69.67
69171;BME280;56279;47.902;12.308;2022-08-01T03:14:53;95422.44;;;19.87;70.06
69171;BME280;56279;47.902;12.308;2022-08-01T03:16:56;95425.91;;;19.88;70.06
69171;BME280;56279;47.902;12.308;2022-08-01T03:19:00;95421.31;;;19.88;69.79
69171;BME280;56279;47.902;12.308;2022-08-01T03:21:03;95421.00;;;19.90;69.75
69171;BME280;56279;47.902;12.308;2022-08-01T03:23:08;95423.69;;;19.90;69.93
69171;BME280;56279;47.902;12.308;2022-08-01T03:25:12;95428.25;;;19.89;70.18
69171;BME280;56279;47.902;12.308;2022-08-01T03:27:14;95427.03;;;19.87;69.88
69171;BME280;56279;47.902;12.308;2022-08-01T03:29:20;95426.22;;;19.86;69.64
69171;BME280;56279;47.902;12.308;2022-08-01T03:31:23;95422.44;;;19.87;69.69
69171;BME280;56279;47.902;12.308;2022-08-01T03:33:26;95431.28;;;19.88;69.26
69171;BME280;56279;47.902;12.308;2022-08-01T03:35:30;95436.75;;;19.91;69.36
69171;BME280;56279;47.902;12.308;2022-08-01T03:37:38;95430.72;;;19.94;68.94
69171;BME280;56279;47.902;12.308;2022-08-01T03:39:49;95438.09;;;19.97;68.65
69171;BME280;56279;47.902;12.308;2022-08-01T03:41:57;95434.44;;;20.02;68.69
69171;BME280;56279;47.902;12.308;2022-08-01T03:44:05;95437.66;;;20.08;68.04
69171;BME280;56279;47.902;12.308;2022-08-01T03:46:12;95437.78;;;20.11;67.86
69171;BME280;56279;47.902;12.308;2022-08-01T03:48:17;95440.91;;;20.13;67.62
69171;BME280;56279;47.902;12.308;2022-08-01T03:50:21;95442.94;;;20.16;67.54
69171;BME280;56279;47.902;12.308;2022-08-01T03:52:24;95441.78;;;20.17;67.88
69171;BME280;56279;47.902;12.308;2022-08-01T03:54:30;95433.75;;;20.17;67.26
69171;BME280;56279;47.902;12.308;2022-08-01T03:56:34;95444.13;;;20.19;67.46
69171;BME280;56279;47.902;12.308;2022-08-01T03:58:39;95446.50;;;20.20;67.09
69171;BME280;56279;47.902;12.308;2022-08-01T04:00:41;95440.50;;;20.23;66.79
69171;BME280;56279;47.902;12.308;2022-08-01T04:02:42;95440.94;;;20.25;67.18
69171;BME280;56279;47.902;12.308;2022-08-01T04:04:45;95439.81;;;20.26;66.29
69171;BME280;56279;47.902;12.308;2022-08-01T04:06:46;95435.38;;;20.30;66.68
69171;BME280;56279;47.902;12.308;2022-08-01T04:08:51;95440.16;;;20.37;65.71
69171;BME280;56279;47.902;12.308;2022-08-01T04:10:58;95447.19;;;20.41;65.43
69171;BME280;56279;47.902;12.308;2022-08-01T04:13:00;95441.16;;;20.44;65.38
69171;BME280;56279;47.902;12.308;2022-08-01T04:15:02;95444.31;;;20.46;65.34
69171;BME280;56279;47.902;12.308;2022-08-01T04:17:04;95441.63;;;20.46;65.06
69171;BME280;56279;47.902;12.308;2022-08-01T04:19:06;95448.88;;;20.46;64.37
69171;BME280;56279;47.902;12.308;2022-08-01T04:21:10;95449.31;;;20.48;64.38
69171;BME280;56279;47.902;12.308;2022-08-01T04:23:13;95449.09;;;20.53;64.48
69171;BME280;56279;47.902;12.308;2022-08-01T04:25:24;95455.34;;;20.57;64.38
69171;BME280;56279;47.902;12.308;2022-08-01T04:27:31;95442.06;;;20.60;64.76
69171;BME280;56279;47.902;12.308;2022-08-01T04:29:34;95444.50;;;20.65;64.65
69171;BME280;56279;47.902;12.308;2022-08-01T04:31:39;95451.19;;;20.72;63.89
69171;BME280;56279;47.902;12.308;2022-08-01T04:33:46;95450.97;;;20.77;64.21
69171;BME280;56279;47.902;12.308;2022-08-01T04:35:49;95452.97;;;20.80;64.05
69171;BME280;56279;47.902;12.308;2022-08-01T04:37:52;95459.91;;;20.81;64.09
69171;BME280;56279;47.902;12.308;2022-08-01T04:39:54;95459.13;;;20.80;64.21
69171;BME280;56279;47.902;12.308;2022-08-01T04:41:59;95464.47;;;20.80;64.08
69171;BME280;56279;47.902;12.308;2022-08-01T04:44:01;95466.84;;;20.82;64.19
69171;BME280;56279;47.902;12.308;2022-08-01T04:46:05;95462.59;;;20.81;64.10
69171;BME280;56279;47.902;12.308;2022-08-01T04:48:08;95469.53;;;20.82;64.41
69171;BME280;56279;47.902;12.308;2022-08-01T04:50:11;95471.88;;;20.83;64.38
69171;BME280;56279;47.902;12.308;2022-08-01T04:52:15;95470.72;;;20.84;64.10
69171;BME280;56279;47.902;12.308;2022-08-01T04:54:18;95474.63;;;20.87;64.35
69171;BME280;56279;47.902;12.308;2022-08-01T04:56:22;95477.75;;;20.89;64.30
69171;BME280;56279;47.902;12.308;2022-08-01T04:58:26;95477.75;;;20.89;64.05
69171;BME280;56279;47.902;12.308;2022-08-01T05:00:28;95473.97;;;20.90;64.12
69171;BME280;56279;47.902;12.308;2022-08-01T05:02:32;95480.13;;;20.90;64.36
69171;BME280;56279;47.902;12.308;2022-08-01T05:04:34;95486.28;;;20.91;64.36
69171;BME280;56279;47.902;12.308;2022-08-01T05:06:44;95484.72;;;20.90;64.15
69171;BME280;56279;47.902;12.308;2022-08-01T05:08:50;95487.03;;;20.91;63.98
69171;BME280;56279;47.902;12.308;2022-08-01T05:10:54;95487.03;;;20.91;63.94
69171;BME280;56279;47.902;12.308;2022-08-01T05:12:57;95487.03;;;20.91;63.50
69171;BME280;56279;47.902;12.308;2022-08-01T05:15:10;95499.00;;;20.94;63.77
69171;BME280;56279;47.902;12.308;2022-08-01T05:17:14;95493.31;;;20.95;63.40
69171;BME280;56279;47.902;12.308;2022-08-01T05:19:21;95492.53;;;20.95;62.88
69171;BME280;56279;47.902;12.308;2022-08-01T05:21:27;95490.63;;;20.95;62.85
69171;BME280;56279;47.902;12.308;2022-08-01T05:23:49;95493.41;;;20.99;63.33
69171;BME280;56279;47.902;12.308;2022-08-01T05:25:56;95485.47;;;21.02;62.82
69171;BME280;56279;47.902;12.308;2022-08-01T05:28:01;95490.31;;;21.09;62.77
69171;BME280;56279;47.902;12.308;2022-08-01T05:30:09;95488.16;;;21.14;62.85
69171;BME280;56279;47.902;12.308;2022-08-01T05:32:27;95485.22;;;21.19;62.77
69171;BME280;56279;47.902;12.308;2022-08-01T05:34:42;95490.03;;;21.26;62.64
69171;BME280;56279;47.902;12.308;2022-08-01T05:37:11;95491.34;;;21.32;62.44
69171;BME280;56279;47.902;12.308;2022-08-01T05:39:36;95496.06;;;21.35;62.49
69171;BME280;56279;47.902;12.308;2022-08-01T05:41:40;95494.91;;;21.36;62.57
69171;BME280;56279;47.902;12.308;2022-08-01T05:43:43;95494.34;;;21.43;62.30
69171;BME280;56279;47.902;12.308;2022-08-01T05:45:45;95495.69;;;21.49;62.08
69171;BME280;56279;47.902;12.308;2022-08-01T05:47:52;95498.88;;;21.54;62.30
69171;BME280;56279;47.902;12.308;2022-08-01T05:50:03;95502.13;;;21.60;61.86
69171;BME280;56279;47.902;12.308;2022-08-01T05:52:07;95502.66;;;21.65;60.80
69171;BME280;56279;47.902;12.308;2022-08-01T05:54:13;95501.28;;;21.71;61.25
69171;BME280;56279;47.902;12.308;2022-08-01T05:56:23;95499.56;;;21.79;60.80
69171;BME280;56279;47.902;12.308;2022-08-01T05:58:31;95502.91;;;21.88;60.96
69171;BME280;56279;47.902;12.308;2022-08-01T06:00:33;95502.00;;;21.96;60.68
69171;BME280;56279;47.902;12.308;2022-08-01T06:02:41;95504.50;;;22.05;60.51
69171;BME280;56279;47.902;12.308;2022-08-01T06:04:43;95506.97;;;22.10;60.52
69171;BME280;56279;47.902;12.308;2022-08-01T06:06:46;95502.34;;;22.10;59.90
69171;BME280;56279;47.902;12.308;2022-08-01T06:08:50;95498.88;;;22.10;59.81
69171;BME280;56279;47.902;12.308;2022-08-01T06:14:05;95517.84;;;22.01;60.27
69171;BME280;56279;47.902;12.308;2022-08-01T06:16:06;95515.88;;;21.98;60.10
69171;BME280;56279;47.902;12.308;2022-08-01T06:18:10;95519.22;;;21.95;60.59
69171;BME280;56279;47.902;12.308;2022-08-01T06:20:17;95526.06;;;21.92;60.20
69171;BME280;56279;47.902;12.308;2022-08-01T06:22:21;95522.94;;;21.90;60.80
69171;BME280;56279;47.902;12.308;2022-08-01T06:24:25;95530.59;;;21.88;60.86
69171;BME280;56279;47.902;12.308;2022-08-01T06:26:27;95526.00;;;21.89;60.64
69171;BME280;56279;47.902;12.308;2022-08-01T06:28:42;95525.63;;;21.90;60.67
69171;BME280;56279;47.902;12.308;2022-08-01T06:30:47;95532.91;;;21.90;60.95
69171;BME280;56279;47.902;12.308;2022-08-01T06:32:49;95537.69;;;21.96;60.31
69171;BME280;56279;47.902;12.308;2022-08-01T06:34:51;95529.19;;;21.94;60.04
69171;BME280;56279;47.902;12.308;2022-08-01T06:37:00;95525.63;;;21.90;60.13
69171;BME280;56279;47.902;12.308;2022-08-01T06:39:05;95535.06;;;21.84;60.27
69171;BME280;56279;47.902;12.308;2022-08-01T06:41:06;95538.84;;;21.83;60.42
69171;BME280;56279;47.902;12.308;2022-08-01T06:43:29;95537.97;;;21.79;60.46
69171;BME280;56279;47.902;12.308;2022-08-01T06:45:56;95534.88;;;21.77;60.08
69171;BME280;56279;47.902;12.308;2022-08-01T06:48:04;95531.72;;;21.75;59.94
69171;BME280;56279;47.902;12.308;2022-08-01T06:50:09;95535.09;;;21.72;59.74
69171;BME280;56279;47.902;12.308;2022-08-01T06:52:10;95540.03;;;21.70;59.28
69171;BME280;56279;47.902;12.308;2022-08-01T06:54:12;95537.34;;;21.70;59.55
69171;BME280;56279;47.902;12.308;2022-08-01T06:56:13;95533.53;;;21.71;59.67
69171;BME280;56279;47.902;12.308;2022-08-01T06:58:15;95532.41;;;21.72;59.67
69171;BME280;56279;47.902;12.308;2022-08-01T07:00:21;95533.16;;;21.73;59.69
69171;BME280;56279;47.902;12.308;2022-08-01T07:03:10;95531.28;;;21.73;59.12
69171;BME280;56279;47.902;12.308;2022-08-01T07:05:11;95530.47;;;21.73;59.15
69171;BME280;56279;47.902;12.308;2022-08-01T07:07:22;95525.56;;;21.75;59.07
69171;BME280;56279;47.902;12.308;2022-08-01T07:09:26;95530.94;;;21.75;58.68
69171;BME280;56279;47.902;12.308;2022-08-01T07:11:28;95534.41;;;21.75;58.50
69171;BME280;56279;47.902;12.308;2022-08-01T07:13:29;95532.50;;;21.76;58.83
69171;BME280;56279;47.902;12.308;2022-08-01T07:15:32;95532.94;;;21.78;58.62
69171;BME280;56279;47.902;12.308;2022-08-01T07:17:41;95543.34;;;21.79;58.60
69171;BME280;56279;47.902;12.308;2022-08-01T07:19:58;95528.09;;;21.83;58.85
69171;BME280;56279;47.902;12.308;2022-08-01T07:22:49;95536.63;;;21.85;58.83
69171;BME280;56279;47.902;12.308;2022-08-01T07:24:57;95531.25;;;21.85;59.12
69171;BME280;56279;47.902;12.308;2022-08-01T07:28:12;95538.66;;;21.88;59.30
69171;BME280;56279;47.902;12.308;2022-08-01T07:30:54;95538.66;;;21.88;59.60
69171;BME280;56279;47.902;12.308;2022-08-01T07:37:40;95539.50;;;21.92;60.08
69171;BME280;56279;47.902;12.308;2022-08-01T07:39:42;95527.38;;;21.98;60.17
69171;BME280;56279;47.902;12.308;2022-08-01T07:41:53;95537.44;;;22.01;60.08
69171;BME280;56279;47.902;12.308;2022-08-01T07:44:00;95527.56;;;22.06;60.26
69171;BME280;56279;47.902;12.308;2022-08-01T07:49:34;95527.44;;;22.14;59.95
69171;BME280;56279;47.902;12.308;2022-08-01T07:52:17;95523.69;;;22.19;59.82
69171;BME280;56279;47.902;12.308;2022-08-01T07:55:07;95519.53;;;22.21;59.88
69171;BME280;56279;47.902;12.308;2022-08-01T07:57:09;95515.03;;;22.25;59.77
69171;BME280;56279;47.902;12.308;2022-08-01T07:59:17;95522.06;;;22.30;60.16
69171;BME280;56279;47.902;12.308;2022-08-01T08:02:08;95518.75;;;22.36;59.79
69171;BME280;56279;47.902;12.308;2022-08-01T08:05:01;95521.63;;;22.43;59.48
69171;BME280;56279;47.902;12.308;2022-08-01T08:07:23;95527.53;;;22.49;59.36
69171;BME280;56279;47.902;12.308;2022-08-01T08:09:52;95529.25;;;22.57;59.17
69171;BME280;56279;47.902;12.308;2022-08-01T08:12:31;95527.56;;;22.64;58.54
69171;BME280;56279;47.902;12.308;2022-08-01T08:24:26;95530.19;;;23.11;56.93
69171;BME280;56279;47.902;12.308;2022-08-01T08:30:12;95533.63;;;23.27;57.02
69171;BME280;56279;47.902;12.308;2022-08-01T08:32:36;95540.41;;;23.37;56.55
69171;BME280;56279;47.902;12.308;2022-08-01T08:35:00;95534.31;;;23.40;55.83
69171;BME280;56279;47.902;12.308;2022-08-01T08:37:57;95539.03;;;23.43;56.03
69171;BME280;56279;47.902;12.308;2022-08-01T08:40:06;95534.38;;;23.44;55.79
69171;BME280;56279;47.902;12.308;2022-08-01T08:42:18;95535.97;;;23.45;56.11
69171;BME280;56279;47.902;12.308;2022-08-01T08:44:40;95540.13;;;23.42;56.29
69171;BME280;56279;47.902;12.308;2022-08-01T08:49:29;95533.53;;;23.40;55.91
69171;BME280;56279;47.902;12.308;2022-08-01T08:51:33;95531.28;;;23.42;55.57
69171;BME280;56279;47.902;12.308;2022-08-01T08:53:48;95531.41;;;23.49;55.90
69171;BME280;56279;47.902;12.308;2022-08-01T09:00:06;95532.84;;;23.81;55.38
69171;BME280;56279;47.902;12.308;2022-08-01T09:09:53;95532.97;;;24.26;54.39
69171;BME280;56279;47.902;12.308;2022-08-01T09:11:59;95524.63;;;24.35;53.41
69171;BME280;56279;47.902;12.308;2022-08-01T09:20:03;95530.75;;;24.32;54.05
69171;BME280;56279;47.902;12.308;2022-08-01T09:23:11;95526.91;;;24.33;53.97
69171;BME280;56279;47.902;12.308;2022-08-01T09:25:51;95525.47;;;24.39;53.74
69171;BME280;56279;47.902;12.308;2022-08-01T09:28:33;95523.78;;;24.53;53.09
69171;BME280;56279;47.902;12.308;2022-08-01T09:31:26;95522.16;;;24.71;52.30
69171;BME280;56279;47.902;12.308;2022-08-01T09:34:01;95520.38;;;24.79;52.57
69171;BME280;56279;47.902;12.308;2022-08-01T09:39:43;95524.81;;;24.91;51.96
69171;BME280;56279;47.902;12.308;2022-08-01T09:42:37;95522.69;;;25.03;52.37
69171;BME280;56279;47.902;12.308;2022-08-01T09:56:17;95506.91;;;25.35;50.46
69171;BME280;56279;47.902;12.308;2022-08-01T09:58:56;95506.19;;;25.38;50.59
69171;BME280;56279;47.902;12.308;2022-08-01T10:01:01;95505.94;;;25.47;50.34
69171;BME280;56279;47.902;12.308;2022-08-01T10:03:26;95502.59;;;25.57;50.29
69171;BME280;56279;47.902;12.308;2022-08-01T10:05:35;95499.16;;;25.60;50.62
69171;BME280;56279;47.902;12.308;2022-08-01T10:07:57;95504.19;;;25.61;49.90
69171;BME280;56279;47.902;12.308;2022-08-01T10:13:18;95495.59;;;25.85;50.42
69171;BME280;56279;47.902;12.308;2022-08-01T10:16:30;95498.75;;;25.91;49.36
69171;BME280;56279;47.902;12.308;2022-08-01T10:18:59;95491.00;;;25.89;49.25
69171;BME280;56279;47.902;12.308;2022-08-01T10:21:13;95485.28;;;25.94;49.46
69171;BME280;56279;47.902;12.308;2022-08-01T10:24:10;95480.78;;;26.09;49.92
69171;BME280;56279;47.902;12.308;2022-08-01T10:29:28;95485.22;;;26.24;47.78
69171;BME280;56279;47.902;12.308;2022-08-01T10:31:53;95476.34;;;26.27;48.12
69171;BME280;56279;47.902;12.308;2022-08-01T10:34:39;95474.03;;;26.29;47.78
69171;BME280;56279;47.902;12.308;2022-08-01T10:36:44;95479.91;;;26.35;46.97
69171;BME280;56279;47.902;12.308;2022-08-01T10:51:44;95478.19;;;26.60;45.54
69171;BME280;56279;47.902;12.308;2022-08-01T10:54:30;95471.66;;;26.68;46.62
69171;BME280;56279;47.902;12.308;2022-08-01T10:57:57;95470.59;;;26.76;46.98
69171;BME280;56279;47.902;12.308;2022-08-01T11:12:59;95462.06;;;26.78;46.64
69171;BME280;56279;47.902;12.308;2022-08-01T12:29:39;95408.06;;;28.20;39.98
69171;BME280;56279;47.902;12.308;2022-08-01T15:01:39;95357.97;;;30.74;32.57
69171;BME280;56279;47.902;12.308;2022-08-01T16:14:11;95393.31;;;28.81;40.34
69171;BME280;56279;47.902;12.308;2022-08-01T16:51:39;95400.25;;;25.95;45.81
69171;BME280;56279;47.902;12.308;2022-08-01T16:54:13;95408.59;;;25.76;45.57
69171;BME280;56279;47.902;12.308;2022-08-01T17:01:30;95402.56;;;25.57;46.91
69171;BME280;56279;47.902;12.308;2022-08-01T17:03:35;95405.66;;;25.55;47.17
69171;BME280;56279;47.902;12.308;2022-08-01T17:06:07;95402.97;;;25.55;47.19
69171;BME280;56279;47.902;12.308;2022-08-01T17:08:29;95407.13;;;25.49;47.29
69171;BME280;56279;47.902;12.308;2022-08-01T17:10:50;95402.47;;;25.46;47.09
69171;BME280;56279;47.902;12.308;2022-08-01T17:12:52;95405.88;;;25.43;47.41
69171;BME280;56279;47.902;12.308;2022-08-01T17:14:56;95412.41;;;25.42;47.45
69171;BME280;56279;47.902;12.308;2022-08-01T17:16:57;95407.31;;;25.33;47.79
69171;BME280;56279;47.902;12.308;2022-08-01T17:19:04;95402.22;;;25.28;47.29
69171;BME280;56279;47.902;12.308;2022-08-01T17:24:23;95412.13;;;25.17;47.36
69171;BME280;56279;47.902;12.308;2022-08-01T17:26:34;95424.34;;;25.08;46.61
69171;BME280;56279;47.902;12.308;2022-08-01T17:28:48;95430.47;;;25.05;47.12
69171;BME280;56279;47.902;12.308;2022-08-01T17:30:49;95428.09;;;25.00;47.21
69171;BME280;56279;47.902;12.308;2022-08-01T17:35:43;95430.69;;;24.93;47.36
69171;BME280;56279;47.902;12.308;2022-08-01T17:38:04;95430.66;;;24.89;47.69
69171;BME280;56279;47.902;12.308;2022-08-01T17:40:06;95441.47;;;24.89;47.73
69171;BME280;56279;47.902;12.308;2022-08-01T18:03:52;95435.50;;;24.54;51.06
69171;BME280;56279;47.902;12.308;2022-08-01T18:06:45;95441.19;;;24.45;51.97
69171;BME280;56279;47.902;12.308;2022-08-01T18:08:52;95440.69;;;24.40;51.75
69171;BME280;56279;47.902;12.308;2022-08-01T18:10:56;95445.25;;;24.36;51.50
69171;BME280;56279;47.902;12.308;2022-08-01T18:16:17;95447.34;;;24.23;51.47
69171;BME280;56279;47.902;12.308;2022-08-01T18:20:58;95459.19;;;24.15;52.19
69171;BME280;56279;47.902;12.308;2022-08-01T18:23:06;95453.38;;;24.13;52.38
69171;BME280;56279;47.902;12.308;2022-08-01T18:25:10;95450.19;;;24.08;52.16
69171;BME280;56279;47.902;12.308;2022-08-01T18:27:15;95456.63;;;24.03;51.49
69171;BME280;56279;47.902;12.308;2022-08-01T18:29:36;95461.19;;;23.99;51.80
69171;BME280;56279;47.902;12.308;2022-08-01T18:31:42;95457.63;;;23.95;51.50
69171;BME280;56279;47.902;12.308;2022-08-01T18:33:47;95454.09;;;23.91;52.37
69171;BME280;56279;47.902;12.308;2022-08-01T18:36:15;95455.53;;;23.85;52.14
69171;BME280;56279;47.902;12.308;2022-08-01T18:38:28;95454.66;;;23.81;52.25
69171;BME280;56279;47.902;12.308;2022-08-01T18:40:45;95463.47;;;23.78;53.24
69171;BME280;56279;47.902;12.308;2022-08-01T18:42:52;95468.00;;;23.74;52.96
69171;BME280;56279;47.902;12.308;2022-08-01T18:44:56;95471.44;;;23.71;53.15
69171;BME280;56279;47.902;12.308;2022-08-01T18:46:58;95466.75;;;23.68;52.64
69171;BME280;56279;47.902;12.308;2022-08-01T18:49:08;95473.63;;;23.65;53.59
69171;BME280;56279;47.902;12.308;2022-08-01T18:51:10;95476.25;;;23.62;53.26
69171;BME280;56279;47.902;12.308;2022-08-01T18:53:19;95470.78;;;23.58;52.96
69171;BME280;56279;47.902;12.308;2022-08-01T18:56:32;95462.19;;;23.53;52.89
69171;BME280;56279;47.902;12.308;2022-08-01T18:59:46;95464.06;;;23.49;53.26
69171;BME280;56279;47.902;12.308;2022-08-01T19:01:57;95470.94;;;23.46;53.66
69171;BME280;56279;47.902;12.308;2022-08-01T19:03:58;95477.47;;;23.45;53.13
69171;BME280;56279;47.902;12.308;2022-08-01T19:06:03;95478.97;;;23.43;53.77
69171;BME280;56279;47.902;12.308;2022-08-01T19:08:05;95481.56;;;23.39;54.20
69171;BME280;56279;47.902;12.308;2022-08-01T19:10:07;95493.41;;;23.34;54.75
69171;BME280;56279;47.902;12.308;2022-08-01T19:12:14;95500.59;;;23.30;55.46
69171;BME280;56279;47.902;12.308;2022-08-01T19:14:18;95488.53;;;23.24;56.03
69171;BME280;56279;47.902;12.308;2022-08-01T19:16:21;95490.75;;;23.19;56.45